Airfield :
LOGIN :

Register | Disclaimer

   EN    FR    IT 

 










Legend :    VFR   Marginal VFR   IFR   Intensive IFR   Very Intensive IFR
Visi :
Ceiling :
>= 8 km
>= 3000ft
5 to 8 km
1000 to 3000 ft
1500m to 5 km
500 to 1000 ft
800 to 1500m
200 to 500 ft
< 800m
< 200 ft
Symbols :   Thunderstorms  Fog  Heavy snow  Heavy precipitations  Wind > 20 kt
SIGMETs :     Misc.  Thunderstorms  Icing  Turbulence  Mountain Waves  Volcanic Ashes







- Airport Elevation : 289 ft


LIRG - Guidonia

CURRENT METAR :
  • 191655Z 27003KT 190V320 6000 -DZ FEW030 BKN050 09/08 Q1002

EXPIRED METARs :
  • 191555Z 31007KT 290V010 6000 -DZ FEW030 BKN050 09/09 Q1003 RMK OVC MON NE CLD CIME NC VIS MIN 6000 WHT
  • 191455Z 29007KT 5000 -RA BKN030 10/08 Q1004

TAF TAF LIRG
Valid from the 19 at 15:00 until the 20 at 00:00 UTC


191400Z 1915/1924 02007KT 9999 SCT030 BKN050
TEMPO 1915/1921 5000 RA BR BKN020
TEMPO 1915/1918 3000 SHRA FEW022CB
No reported NOTAMs for that airfield.
2 SIGMETs reported for the Roma FIR (LIRR) :
 
Severe turbulence
LIRR SIGMET 9 VALID 191700/192000 LIIB
LIRR ROMA FIR SEV TURB FCST WI N4253 E01304 - N4121 E01425 - N4112 E01507 - N3901 E00759 - N4055 E00759 - N4121 E00820 - N4120 E00945 - N4149 E00947 - N4253 E01304 FL240/360 STNR NC=
Embedded thunderstorms
LIRR SIGMET 10 VALID 191710/192010 LIIB
LIRR ROMA FIR EMBD TS FCST WI N4223 E01235 - N4217 E01337 - N4124 E01418 - N4109 E01507 - N3925 E01607 - N3801 E01015 - N3859 E00802 - N3955 E00759 - N4223 E01235 TOP FL390 STNR NC=



MET'MAP, your aeronautical weather chart ! - Copyright ORBIFLY December 2007 - Disclaimer

ORBIFLY MET'MAP TEAM :

Programming & Development : Alexandra Zaïnal
Concept & Development : Baudouin d'Aumeries
Co-Development & Prog : Marc-Olivier Méhu
Technical & hardware support : Manuel Goepfert

Contact : metmap@orbifly.com




SOURCES & CREDITS :

   NOAA